Terminal Aerodrome Forecast
Issued by NWS

Home | Current Version | Previous Version | Text Only | Print | Product List | Glossary On
Versions: 1 2 3 4 5 6 7 8 9 10 11 12 13 14 15 16 17 18 19
000
FTUS43 KAPX 130540
TAFTVC
TAF
KTVC 130540Z 1306/1406 VRB03KT 6SM -SHSN OVC035
     FM131200 13006KT P6SM VCSH OVC030
     FM131500 14007KT P6SM -SN OVC020
     FM132000 08009KT P6SM -SN BKN020
     FM132300 04008KT P6SM -SN BKN025
     FM140300 03007KT P6SM BKN030=

USA.gov is the U.S. government's official web portal to all federal, state and local government web resources and services.